createdAt,value
2018-04-18T00:00:32.099Z,16.12
2018-04-18T00:01:32.043Z,16.12
2018-04-18T00:02:32.068Z,16.15
2018-04-18T00:03:32.034Z,16.12
2018-04-18T00:04:32.054Z,16.14
2018-04-18T00:05:32.058Z,16.12
2018-04-18T00:06:32.039Z,16.02
2018-04-18T00:07:32.045Z,15.81
2018-04-18T00:08:32.050Z,15.82
2018-04-18T00:09:32.057Z,15.78
2018-04-18T00:10:32.056Z,15.8
2018-04-18T00:11:32.059Z,15.81
2018-04-18T00:12:32.054Z,15.8
2018-04-18T00:13:32.074Z,15.78
2018-04-18T00:14:32.080Z,15.77
2018-04-18T00:15:32.032Z,15.73
2018-04-18T00:16:32.040Z,15.73
2018-04-18T00:17:32.060Z,15.7
2018-04-18T00:18:32.031Z,15.73
2018-04-18T00:19:32.163Z,15.71
2018-04-18T00:20:32.035Z,15.74
2018-04-18T00:21:32.058Z,15.76
2018-04-18T00:22:32.052Z,15.74
2018-04-18T00:23:32.038Z,15.73
2018-04-18T00:24:32.050Z,15.69
2018-04-18T00:25:32.038Z,15.6
2018-04-18T00:26:32.180Z,15.57
2018-04-18T00:27:32.047Z,15.52
2018-04-18T00:28:32.119Z,15.31
2018-04-18T00:29:32.239Z,14.98
2018-04-18T00:30:32.133Z,14.86
2018-04-18T00:31:32.144Z,14.67
2018-04-18T00:32:32.156Z,14.49
2018-04-18T00:33:32.027Z,14.33
2018-04-18T00:34:32.147Z,14.31
2018-04-18T00:35:32.146Z,14.28
2018-04-18T00:36:32.016Z,14.33
2018-04-18T00:37:32.057Z,14.39
2018-04-18T00:38:32.019Z,14.46
2018-04-18T00:39:32.054Z,14.51
2018-04-18T00:40:32.054Z,14.53
2018-04-18T00:41:32.137Z,14.56
2018-04-18T00:42:32.164Z,14.55
2018-04-18T00:43:32.054Z,14.55
2018-04-18T00:44:32.146Z,14.59
2018-04-18T00:45:32.047Z,14.66
2018-04-18T00:46:32.051Z,14.64
2018-04-18T00:47:32.022Z,14.67
2018-04-18T00:48:32.037Z,14.69
2018-04-18T00:49:32.042Z,14.69
2018-04-18T00:50:32.037Z,14.66
2018-04-18T00:51:32.142Z,14.67
2018-04-18T00:52:32.015Z,14.62
2018-04-18T00:53:32.039Z,14.64
2018-04-18T00:54:32.023Z,14.64
2018-04-18T00:55:32.012Z,14.67
2018-04-18T00:56:32.187Z,14.67
2018-04-18T00:57:32.044Z,14.63
2018-04-18T00:58:32.010Z,14.56
2018-04-18T00:59:32.030Z,14.55
2018-04-18T01:00:32.052Z,14.52
2018-04-18T01:01:32.035Z,14.46
2018-04-18T01:02:32.016Z,14.46
2018-04-18T01:03:32.027Z,14.49
2018-04-18T01:04:32.148Z,14.49
2018-04-18T01:05:32.041Z,14.52
2018-04-18T01:06:32.020Z,14.48
2018-04-18T01:07:32.015Z,14.51
2018-04-18T01:08:32.038Z,14.48
2018-04-18T01:09:32.221Z,14.49
2018-04-18T01:10:32.021Z,14.48
2018-04-18T01:11:32.057Z,14.48
2018-04-18T01:12:32.019Z,14.49
2018-04-18T01:13:32.028Z,14.53
2018-04-18T01:14:32.009Z,14.51
2018-04-18T01:15:32.027Z,14.36
2018-04-18T01:16:32.049Z,14.29
2018-04-18T01:17:32.009Z,14.19
2018-04-18T01:18:32.016Z,14.21
2018-04-18T01:19:32.011Z,14.18
2018-04-18T01:20:32.040Z,14.07
2018-04-18T01:21:32.023Z,14.05
2018-04-18T01:22:32.006Z,14.02
2018-04-18T01:23:32.040Z,14.05
2018-04-18T01:24:31.993Z,14.08
2018-04-18T01:25:32.005Z,14.08
2018-04-18T01:26:32.031Z,14.08
2018-04-18T01:27:32.007Z,14.04
2018-04-18T01:28:31.990Z,13.98
2018-04-18T01:29:32.014Z,14.01
2018-04-18T01:30:32.047Z,14.01
2018-04-18T01:31:32.042Z,13.96
2018-04-18T01:32:32.033Z,13.9
2018-04-18T01:33:32.033Z,13.9
2018-04-18T01:34:32.017Z,13.91
2018-04-18T01:35:32.026Z,13.87
2018-04-18T01:36:32.031Z,13.82
2018-04-18T01:37:32.042Z,13.82
2018-04-18T01:38:32.022Z,13.8
2018-04-18T01:39:31.990Z,13.84
2018-04-18T01:40:32.034Z,13.83
2018-04-18T01:41:31.992Z,13.8
2018-04-18T01:42:32.010Z,13.79
2018-04-18T01:43:32.010Z,13.73
2018-04-18T01:44:32.005Z,13.73
2018-04-18T01:45:32.045Z,13.74
2018-04-18T01:46:32.019Z,13.69
2018-04-18T01:47:32.008Z,13.66
2018-04-18T01:48:32.116Z,13.63
2018-04-18T01:49:32.045Z,13.63
2018-04-18T01:50:32.022Z,13.56
2018-04-18T01:51:32.069Z,13.55
2018-04-18T01:52:31.992Z,13.57
2018-04-18T01:53:32.000Z,13.56
2018-04-18T01:54:31.984Z,13.56
2018-04-18T01:55:31.995Z,13.53
2018-04-18T01:56:31.986Z,13.5
2018-04-18T01:57:31.985Z,13.5
2018-04-18T01:58:32.056Z,13.47
2018-04-18T01:59:32.042Z,13.49
2018-04-18T02:00:31.984Z,13.53
2018-04-18T02:01:31.988Z,13.5
2018-04-18T02:02:32.011Z,13.52
2018-04-18T02:03:31.987Z,13.49
2018-04-18T02:04:31.997Z,13.46
2018-04-18T02:05:32.025Z,13.46
2018-04-18T02:06:32.004Z,13.43
2018-04-18T02:07:31.989Z,13.46
2018-04-18T02:08:31.969Z,13.46
2018-04-18T02:09:31.976Z,13.47
2018-04-18T02:10:32.005Z,13.43
2018-04-18T02:11:32.019Z,13.47
2018-04-18T02:12:32.042Z,13.43
2018-04-18T02:13:31.979Z,13.45
2018-04-18T02:14:31.972Z,13.42
2018-04-18T02:15:31.989Z,13.39
2018-04-18T02:16:32.008Z,13.36
2018-04-18T02:17:31.981Z,13.36
2018-04-18T02:18:31.979Z,13.39
2018-04-18T02:19:31.978Z,13.35
2018-04-18T02:20:31.991Z,13.36
2018-04-18T02:21:31.986Z,13.36
2018-04-18T02:22:31.974Z,13.36
2018-04-18T02:23:31.996Z,13.38
2018-04-18T02:24:32.014Z,13.38
2018-04-18T02:25:31.979Z,13.36
2018-04-18T02:26:31.986Z,13.39
2018-04-18T02:27:31.963Z,13.38
2018-04-18T02:28:31.969Z,13.36
2018-04-18T02:29:31.961Z,13.36
2018-04-18T02:30:32.023Z,13.36
2018-04-18T02:31:32.029Z,13.39
2018-04-18T02:32:32.001Z,13.41
2018-04-18T02:33:31.991Z,13.42
2018-04-18T02:34:32.005Z,13.41
2018-04-18T02:35:31.996Z,13.36
2018-04-18T02:36:31.963Z,13.38
2018-04-18T02:37:31.987Z,13.34
2018-04-18T02:38:32.063Z,13.35
2018-04-18T02:39:31.965Z,13.34
2018-04-18T02:40:31.980Z,13.34
2018-04-18T02:41:31.993Z,13.35
2018-04-18T02:42:31.980Z,13.36
2018-04-18T02:43:32.099Z,13.38
2018-04-18T02:44:31.980Z,13.36
2018-04-18T02:45:31.962Z,13.31
2018-04-18T02:46:32.233Z,13.32
2018-04-18T02:47:31.984Z,13.28
2018-04-18T02:48:31.966Z,13.29
2018-04-18T02:49:31.958Z,13.28
2018-04-18T02:50:31.989Z,13.31
2018-04-18T02:51:32.039Z,13.29
2018-04-18T02:52:32.006Z,13.34
2018-04-18T02:53:31.966Z,13.34
2018-04-18T02:54:31.964Z,13.35
2018-04-18T02:55:31.980Z,13.34
2018-04-18T02:56:32.091Z,13.36
2018-04-18T02:57:32.013Z,13.39
2018-04-18T02:58:31.951Z,13.41
2018-04-18T02:59:31.964Z,13.41
2018-04-18T03:00:31.978Z,13.39
2018-04-18T03:01:31.993Z,13.41
2018-04-18T03:02:31.975Z,13.41
2018-04-18T03:03:31.998Z,13.38
2018-04-18T03:04:31.979Z,13.39
2018-04-18T03:05:31.967Z,13.38
2018-04-18T03:06:32.035Z,13.38
2018-04-18T03:07:31.993Z,13.39
2018-04-18T03:08:31.980Z,13.42
2018-04-18T03:09:31.964Z,13.39
2018-04-18T03:10:31.971Z,13.42
2018-04-18T03:11:31.985Z,13.42
2018-04-18T03:12:31.954Z,13.43
2018-04-18T03:13:31.973Z,13.42
2018-04-18T03:14:31.950Z,13.41
2018-04-18T03:15:31.947Z,13.42
2018-04-18T03:16:31.993Z,13.41
2018-04-18T03:17:32.128Z,13.39
2018-04-18T03:18:32.023Z,13.42
2018-04-18T03:19:31.971Z,13.39
2018-04-18T03:20:31.964Z,13.41
2018-04-18T03:21:31.959Z,13.38
2018-04-18T03:22:31.960Z,13.36
2018-04-18T03:23:31.964Z,13.36
2018-04-18T03:24:31.958Z,13.35
2018-04-18T03:25:31.968Z,13.36
2018-04-18T03:26:32.109Z,13.35
2018-04-18T03:27:31.983Z,13.36
2018-04-18T03:28:31.965Z,13.32
2018-04-18T03:29:31.940Z,13.29
2018-04-18T03:30:31.950Z,13.34
2018-04-18T03:31:31.951Z,13.34
2018-04-18T03:32:31.988Z,13.32
2018-04-18T03:33:31.993Z,13.35
2018-04-18T03:34:31.965Z,13.36
2018-04-18T03:35:31.943Z,13.35
2018-04-18T03:36:31.934Z,13.35
2018-04-18T03:37:31.982Z,13.35
2018-04-18T03:38:31.951Z,13.32
2018-04-18T03:39:31.936Z,13.29
2018-04-18T03:40:31.927Z,13.32
2018-04-18T03:41:31.929Z,13.29
2018-04-18T03:42:31.956Z,13.32
2018-04-18T03:43:32.120Z,13.29
2018-04-18T03:44:31.944Z,13.27
2018-04-18T03:45:31.952Z,13.28
2018-04-18T03:46:31.942Z,13.29
2018-04-18T03:47:32.096Z,13.29
2018-04-18T03:48:31.963Z,13.29
2018-04-18T03:49:31.960Z,13.29
2018-04-18T03:50:31.948Z,13.29
2018-04-18T03:51:31.953Z,13.28
2018-04-18T03:52:31.991Z,13.27
2018-04-18T03:53:31.938Z,13.31
2018-04-18T03:54:32.279Z,13.31
2018-04-18T03:55:31.922Z,13.31
2018-04-18T03:56:31.957Z,13.32
2018-04-18T03:57:31.964Z,13.28
2018-04-18T03:58:31.939Z,13.24
2018-04-18T03:59:31.953Z,13.24
2018-04-18T04:00:31.930Z,13.21
2018-04-18T04:01:31.922Z,13.21
2018-04-18T04:02:32.167Z,13.22
2018-04-18T04:03:31.933Z,13.21
2018-04-18T04:04:31.944Z,13.18
2018-04-18T04:05:31.944Z,13.15
2018-04-18T04:06:32.000Z,13.17
2018-04-18T04:07:31.961Z,13.19
2018-04-18T04:08:31.925Z,13.17
2018-04-18T04:09:31.953Z,13.15
2018-04-18T04:10:32.281Z,13.08
2018-04-18T04:11:31.920Z,13.03
2018-04-18T04:12:31.940Z,13.03
2018-04-18T04:13:31.962Z,12.94
2018-04-18T04:14:31.942Z,12.96
2018-04-18T04:15:32.058Z,12.9
2018-04-18T04:16:32.012Z,12.88
2018-04-18T04:17:31.924Z,12.83
2018-04-18T04:18:31.907Z,12.82
2018-04-18T04:19:31.942Z,12.84
2018-04-18T04:20:31.910Z,12.87
2018-04-18T04:21:31.933Z,12.9
2018-04-18T04:22:31.932Z,12.91
2018-04-18T04:23:32.032Z,12.86
2018-04-18T04:24:31.952Z,12.84
2018-04-18T04:25:31.939Z,12.84
2018-04-18T04:26:31.919Z,12.76
2018-04-18T04:27:31.934Z,12.67
2018-04-18T04:28:32.000Z,12.57
2018-04-18T04:29:31.905Z,12.57
2018-04-18T04:30:31.929Z,12.56
2018-04-18T04:31:32.019Z,12.48
2018-04-18T04:32:31.919Z,12.41
2018-04-18T04:33:31.932Z,12.31
2018-04-18T04:34:31.927Z,12.27
2018-04-18T04:35:31.955Z,12.21
2018-04-18T04:36:31.925Z,12.23
2018-04-18T04:37:31.920Z,12.24
2018-04-18T04:38:31.925Z,12.16
2018-04-18T04:39:31.933Z,12.1
2018-04-18T04:40:31.928Z,12.16
2018-04-18T04:41:31.977Z,12.07
2018-04-18T04:42:31.903Z,12
2018-04-18T04:43:31.951Z,12.07
2018-04-18T04:44:31.928Z,12
2018-04-18T04:45:31.919Z,12.01
2018-04-18T04:46:31.914Z,12.01
2018-04-18T04:47:31.905Z,12.03
2018-04-18T04:48:31.962Z,12.05
2018-04-18T04:49:31.930Z,12.03
2018-04-18T04:50:31.904Z,12.05
2018-04-18T04:51:31.924Z,12.1
2018-04-18T04:52:31.896Z,12.11
2018-04-18T04:53:31.926Z,12.1
2018-04-18T04:54:32.079Z,12.1
2018-04-18T04:55:31.921Z,12.13
2018-04-18T04:56:31.923Z,12.16
2018-04-18T04:57:31.912Z,12.14
2018-04-18T04:58:31.920Z,12.18
2018-04-18T04:59:31.890Z,12.2
2018-04-18T05:00:31.926Z,12.16
2018-04-18T05:01:31.946Z,12.17
2018-04-18T05:02:31.955Z,12.05
2018-04-18T05:03:31.929Z,12.05
2018-04-18T05:04:31.930Z,11.97
2018-04-18T05:05:31.934Z,11.98
2018-04-18T05:06:31.901Z,12.01
2018-04-18T05:07:31.954Z,12.03
2018-04-18T05:08:31.924Z,12.1
2018-04-18T05:09:31.923Z,12.08
2018-04-18T05:10:31.906Z,12.14
2018-04-18T05:11:31.894Z,12.21
2018-04-18T05:12:31.878Z,12.21
2018-04-18T05:13:31.907Z,12.27
2018-04-18T05:14:32.044Z,12.28
2018-04-18T05:15:31.912Z,12.37
2018-04-18T05:16:31.909Z,12.42
2018-04-18T05:17:31.896Z,12.48
2018-04-18T05:18:32.027Z,12.53
2018-04-18T05:19:31.980Z,12.56
2018-04-18T05:20:31.902Z,12.59
2018-04-18T05:21:31.910Z,12.65
2018-04-18T05:22:31.892Z,12.69
2018-04-18T05:23:31.913Z,12.73
2018-04-18T05:24:31.912Z,12.77
2018-04-18T05:25:32.063Z,12.8
2018-04-18T05:26:32.007Z,12.83
2018-04-18T05:27:31.997Z,12.86
2018-04-18T05:28:31.918Z,12.93
2018-04-18T05:29:31.877Z,12.96
2018-04-18T05:30:31.950Z,12.97
2018-04-18T05:31:31.907Z,13
2018-04-18T05:32:31.947Z,13.01
2018-04-18T05:33:32.811Z,13.03
2018-04-18T05:34:31.948Z,13.03
2018-04-18T05:35:31.896Z,13.03
2018-04-18T05:36:31.899Z,13.07
2018-04-18T05:37:31.896Z,13.11
2018-04-18T05:38:31.928Z,13.14
2018-04-18T05:39:31.893Z,13.15
2018-04-18T05:40:31.901Z,13.21
2018-04-18T05:41:31.896Z,13.21
2018-04-18T05:42:31.903Z,13.22
2018-04-18T05:43:31.921Z,13.28
2018-04-18T05:44:31.890Z,13.21
2018-04-18T05:45:31.881Z,13.11
2018-04-18T05:46:31.919Z,12.99
2018-04-18T05:47:31.917Z,12.8
2018-04-18T05:48:31.947Z,12.82
2018-04-18T05:49:31.951Z,12.8
2018-04-18T05:50:31.895Z,12.77
2018-04-18T05:51:31.970Z,12.77
2018-04-18T05:52:31.888Z,12.59
2018-04-18T05:53:32.018Z,12.53
2018-04-18T05:54:31.896Z,12.46
2018-04-18T05:55:31.967Z,12.59
2018-04-18T05:56:31.898Z,12.66
2018-04-18T05:57:31.908Z,12.73
2018-04-18T05:58:32.032Z,12.79
2018-04-18T05:59:31.938Z,12.83
2018-04-18T06:00:32.011Z,12.91
2018-04-18T06:01:31.899Z,12.87
2018-04-18T06:02:31.947Z,12.93
2018-04-18T06:03:31.935Z,12.91
2018-04-18T06:04:31.948Z,12.96
2018-04-18T06:05:31.887Z,12.9
2018-04-18T06:06:31.901Z,13
2018-04-18T06:07:32.077Z,13.06
2018-04-18T06:08:31.962Z,13.14
2018-04-18T06:09:32.022Z,13.14
2018-04-18T06:10:31.977Z,13.17
2018-04-18T06:11:31.875Z,13.19
2018-04-18T06:12:31.919Z,13.24
2018-04-18T06:13:31.981Z,13.31
2018-04-18T06:14:31.863Z,13.34
2018-04-18T06:15:31.852Z,13.39
2018-04-18T06:16:31.870Z,13.45
2018-04-18T06:17:31.861Z,13.43
2018-04-18T06:18:31.909Z,13.49
2018-04-18T06:19:31.880Z,13.56
2018-04-18T06:20:31.853Z,13.59
2018-04-18T06:21:31.894Z,13.63
2018-04-18T06:22:31.866Z,13.64
2018-04-18T06:23:31.877Z,13.74
2018-04-18T06:24:31.942Z,13.72
2018-04-18T06:25:32.187Z,13.74
2018-04-18T06:26:31.873Z,13.76
2018-04-18T06:27:32.121Z,13.77
2018-04-18T06:28:31.969Z,13.8
2018-04-18T06:29:31.917Z,13.84
2018-04-18T06:30:32.050Z,13.83
2018-04-18T06:31:31.910Z,13.87
2018-04-18T06:32:31.918Z,13.91
2018-04-18T06:33:31.940Z,13.94
2018-04-18T06:34:31.886Z,13.97
2018-04-18T06:35:31.857Z,13.98
2018-04-18T06:36:31.863Z,14
2018-04-18T06:37:31.847Z,14.04
2018-04-18T06:38:31.884Z,14.08
2018-04-18T06:39:31.887Z,14.14
2018-04-18T06:40:31.874Z,14.17
2018-04-18T06:41:31.887Z,14.21
2018-04-18T06:42:31.866Z,14.21
2018-04-18T06:43:31.993Z,14.28
2018-04-18T06:44:31.840Z,14.32
2018-04-18T06:45:31.886Z,14.33
2018-04-18T06:46:31.862Z,14.36
2018-04-18T06:47:31.895Z,14.4
2018-04-18T06:48:31.877Z,14.45
2018-04-18T06:49:31.869Z,14.49
2018-04-18T06:50:31.840Z,14.55
2018-04-18T06:51:31.845Z,14.55
2018-04-18T06:52:31.838Z,14.6
2018-04-18T06:53:31.882Z,14.67
2018-04-18T06:54:31.954Z,14.74
2018-04-18T06:55:31.917Z,14.74
2018-04-18T06:56:31.849Z,14.81
2018-04-18T06:57:31.873Z,14.86
2018-04-18T06:58:31.864Z,14.9
2018-04-18T06:59:31.981Z,14.94
2018-04-18T07:00:31.950Z,14.98
2018-04-18T07:01:31.833Z,15.02
2018-04-18T07:02:31.914Z,15.07
2018-04-18T07:03:31.983Z,15.08
2018-04-18T07:04:31.855Z,15.12
2018-04-18T07:05:31.945Z,15.15
2018-04-18T07:06:31.855Z,15.21
2018-04-18T07:07:31.876Z,15.22
2018-04-18T07:08:31.922Z,15.31
2018-04-18T07:09:31.931Z,15.39
2018-04-18T07:10:31.823Z,15.41
2018-04-18T07:11:31.840Z,15.45
2018-04-18T07:12:31.833Z,15.47
2018-04-18T07:13:31.882Z,15.54
2018-04-18T07:14:31.913Z,15.57
2018-04-18T07:15:31.846Z,15.62
2018-04-18T07:16:31.850Z,15.67
2018-04-18T07:17:31.932Z,15.71
2018-04-18T07:18:31.917Z,15.76
2018-04-18T07:19:31.830Z,15.81
2018-04-18T07:20:31.917Z,15.85
2018-04-18T07:21:31.815Z,15.88
2018-04-18T07:22:31.988Z,15.91
2018-04-18T07:23:31.873Z,15.95
2018-04-18T07:24:31.821Z,15.95
2018-04-18T07:25:31.864Z,16.01
2018-04-18T07:26:31.921Z,15.99
2018-04-18T07:27:31.834Z,16.02
2018-04-18T07:28:31.852Z,16.08
2018-04-18T07:29:31.882Z,16.16
2018-04-18T07:30:31.846Z,16.25
2018-04-18T07:31:31.891Z,16.25
2018-04-18T07:32:31.817Z,16.26
2018-04-18T07:33:31.954Z,16.36
2018-04-18T07:34:31.861Z,16.42
2018-04-18T07:35:31.839Z,16.47
2018-04-18T07:36:31.911Z,16.49
2018-04-18T07:37:31.997Z,16.6
2018-04-18T07:38:31.832Z,16.6
2018-04-18T07:39:31.831Z,16.63
2018-04-18T07:40:31.881Z,16.66
2018-04-18T07:41:31.882Z,16.73
2018-04-18T07:42:31.832Z,16.68
2018-04-18T07:43:31.866Z,16.74
2018-04-18T07:44:31.875Z,16.83
2018-04-18T07:45:31.845Z,16.84
2018-04-18T07:46:31.823Z,16.88
2018-04-18T07:47:31.811Z,16.9
2018-04-18T07:48:31.806Z,16.92
2018-04-18T07:49:31.864Z,16.98
2018-04-18T07:50:31.837Z,16.97
2018-04-18T07:51:31.821Z,17.02
2018-04-18T07:52:31.807Z,17.07
2018-04-18T07:53:31.871Z,17.08
2018-04-18T07:54:31.828Z,17.07
2018-04-18T07:55:31.811Z,17.07
2018-04-18T07:56:31.833Z,17.05
2018-04-18T07:57:31.847Z,17.11
2018-04-18T07:58:31.838Z,17.16
2018-04-18T07:59:31.806Z,17.12
2018-04-18T08:00:32.326Z,17.14
2018-04-18T08:01:31.807Z,17.12
2018-04-18T08:02:31.834Z,17.12
2018-04-18T08:03:31.914Z,17.15
2018-04-18T08:04:31.822Z,17.15
2018-04-18T08:05:32.012Z,17.18
2018-04-18T08:06:31.818Z,17.23
2018-04-18T08:07:31.853Z,17.23
2018-04-18T08:08:31.985Z,17.26
2018-04-18T08:09:31.811Z,17.29
2018-04-18T08:10:31.851Z,17.35
2018-04-18T08:11:31.817Z,17.36
2018-04-18T08:12:31.801Z,17.39
2018-04-18T08:13:31.796Z,17.42
2018-04-18T08:14:31.798Z,17.47
2018-04-18T08:15:31.884Z,17.47
2018-04-18T08:16:31.808Z,17.49
2018-04-18T08:17:31.962Z,17.53
2018-04-18T08:18:31.788Z,17.54
2018-04-18T08:19:31.821Z,17.53
2018-04-18T08:20:31.848Z,17.58
2018-04-18T08:21:31.807Z,17.64
2018-04-18T08:22:31.929Z,17.66
2018-04-18T08:23:31.838Z,17.66
2018-04-18T08:24:31.782Z,17.76
2018-04-18T08:25:31.867Z,17.76
2018-04-18T08:26:31.825Z,17.76
2018-04-18T08:27:31.870Z,17.77
2018-04-18T08:28:31.921Z,17.82
2018-04-18T08:29:31.935Z,17.84
2018-04-18T08:30:31.805Z,17.94
2018-04-18T08:31:31.796Z,18.04
2018-04-18T08:32:31.853Z,18.02
2018-04-18T08:33:31.804Z,18.08
2018-04-18T08:34:31.841Z,18.05
2018-04-18T08:35:31.842Z,18.15
2018-04-18T08:36:31.791Z,18.11
2018-04-18T08:37:31.811Z,18.25
2018-04-18T08:38:31.787Z,18.23
2018-04-18T08:39:31.866Z,18.32
2018-04-18T08:40:31.811Z,18.26
2018-04-18T08:41:31.890Z,18.25
2018-04-18T08:42:31.805Z,18.33
2018-04-18T08:43:31.769Z,18.33
2018-04-18T08:44:31.798Z,18.37
2018-04-18T08:45:31.814Z,18.56
2018-04-18T08:46:31.814Z,18.61
2018-04-18T08:47:31.787Z,18.67
2018-04-18T08:48:31.783Z,18.61
2018-04-18T08:49:31.804Z,18.64
2018-04-18T08:50:32.031Z,18.64
2018-04-18T08:51:31.794Z,18.67
2018-04-18T08:52:31.781Z,18.7
2018-04-18T08:53:31.794Z,18.71
2018-04-18T08:54:31.762Z,18.8
2018-04-18T08:55:31.799Z,18.84
2018-04-18T08:56:31.765Z,18.87
2018-04-18T08:57:31.778Z,18.88
2018-04-18T08:58:31.772Z,18.95
2018-04-18T08:59:31.768Z,18.98
2018-04-18T09:00:31.770Z,19.02
2018-04-18T09:01:31.782Z,19.08
2018-04-18T09:02:31.777Z,19.1
2018-04-18T09:03:31.757Z,19.16
2018-04-18T09:04:31.798Z,19.22
2018-04-18T09:05:31.764Z,19.23
2018-04-18T09:06:31.780Z,19.26
2018-04-18T09:07:31.765Z,19.3
2018-04-18T09:08:31.749Z,19.32
2018-04-18T09:09:31.753Z,19.36
2018-04-18T09:10:32.113Z,19.4
2018-04-18T09:11:31.762Z,19.47
2018-04-18T09:12:31.767Z,19.51
2018-04-18T09:13:31.779Z,19.54
2018-04-18T09:14:31.983Z,19.54
2018-04-18T09:15:31.756Z,19.54
2018-04-18T09:16:31.887Z,19.6
2018-04-18T09:17:31.764Z,19.65
2018-04-18T09:18:31.913Z,19.74
2018-04-18T09:19:31.854Z,19.78
2018-04-18T09:20:31.786Z,19.84
2018-04-18T09:21:31.985Z,19.92
2018-04-18T09:22:31.775Z,19.92
2018-04-18T09:23:31.750Z,19.92
2018-04-18T09:24:31.760Z,20.04
2018-04-18T09:25:31.765Z,20.22
2018-04-18T09:26:31.768Z,20.26
2018-04-18T09:27:31.776Z,20.3
2018-04-18T09:28:31.874Z,20.36
2018-04-18T09:29:31.784Z,20.34
2018-04-18T09:30:31.784Z,20.43
2018-04-18T09:31:31.802Z,20.44
2018-04-18T09:32:31.762Z,20.44
2018-04-18T09:33:31.806Z,20.52
2018-04-18T09:34:31.893Z,20.64
2018-04-18T09:35:31.747Z,20.67
2018-04-18T09:36:31.796Z,20.64
2018-04-18T09:37:31.815Z,20.65
2018-04-18T09:38:31.900Z,20.7
2018-04-18T09:39:31.785Z,20.72
2018-04-18T09:40:31.771Z,20.75
2018-04-18T09:41:31.789Z,20.77
2018-04-18T09:42:31.753Z,20.81
2018-04-18T09:43:31.817Z,20.82
2018-04-18T09:44:31.817Z,20.85
2018-04-18T09:45:31.757Z,20.87
2018-04-18T09:46:31.795Z,20.89
2018-04-18T09:47:31.739Z,21.05
2018-04-18T09:48:31.750Z,21.1
2018-04-18T09:49:31.750Z,21.19
2018-04-18T09:50:31.742Z,21.2
2018-04-18T09:51:31.739Z,21.19
2018-04-18T09:52:31.750Z,21.22
2018-04-18T09:53:31.742Z,21.27
2018-04-18T09:54:31.748Z,21.39
2018-04-18T09:55:31.735Z,21.47
2018-04-18T09:56:31.762Z,21.57
2018-04-18T09:57:31.782Z,21.53
2018-04-18T09:58:31.945Z,21.56
2018-04-18T09:59:31.822Z,21.54
2018-04-18T10:00:31.757Z,21.6
2018-04-18T10:01:31.781Z,21.57
2018-04-18T10:02:31.755Z,21.65
2018-04-18T10:03:31.780Z,21.68
2018-04-18T10:04:31.788Z,21.69
2018-04-18T10:05:31.781Z,21.68
2018-04-18T10:06:31.770Z,21.75
2018-04-18T10:07:31.748Z,21.79
2018-04-18T10:08:31.751Z,21.75
2018-04-18T10:09:31.738Z,21.77
2018-04-18T10:10:32.082Z,21.78
2018-04-18T10:11:31.774Z,21.82
2018-04-18T10:12:31.738Z,21.88
2018-04-18T10:13:31.765Z,21.96
2018-04-18T10:14:31.745Z,22.02
2018-04-18T10:15:31.761Z,22.06
2018-04-18T10:16:31.748Z,22.02
2018-04-18T10:17:31.795Z,22.12
2018-04-18T10:18:31.743Z,22.08
2018-04-18T10:19:31.927Z,22.09
2018-04-18T10:20:31.758Z,22.16
2018-04-18T10:21:31.772Z,22.36
2018-04-18T10:22:31.752Z,22.31
2018-04-18T10:23:31.728Z,22.26
2018-04-18T10:24:31.739Z,22.33
2018-04-18T10:25:31.740Z,22.34
2018-04-18T10:26:31.770Z,22.19
2018-04-18T10:27:31.743Z,22.13
2018-04-18T10:28:31.779Z,22.2
2018-04-18T10:29:31.744Z,22.31
2018-04-18T10:30:31.739Z,22.3
2018-04-18T10:31:31.754Z,22.34
2018-04-18T10:32:31.743Z,22.41
2018-04-18T10:33:31.782Z,22.53
2018-04-18T10:34:31.722Z,22.63
2018-04-18T10:35:31.941Z,22.68
2018-04-18T10:36:31.770Z,22.72
2018-04-18T10:37:31.766Z,22.75
2018-04-18T10:38:31.844Z,22.79
2018-04-18T10:39:31.924Z,22.82
2018-04-18T10:40:31.733Z,22.85
2018-04-18T10:41:31.718Z,22.88
2018-04-18T10:42:31.747Z,22.94
2018-04-18T10:43:31.737Z,22.94
2018-04-18T10:44:31.751Z,23.06
2018-04-18T10:45:31.764Z,23.03
2018-04-18T10:46:31.710Z,23.07
2018-04-18T10:47:31.794Z,23.12
2018-04-18T10:48:31.743Z,23.11
2018-04-18T10:49:31.749Z,23.16
2018-04-18T10:50:31.741Z,23.16
2018-04-18T10:51:31.750Z,23.25
2018-04-18T10:52:31.747Z,23.33
2018-04-18T10:53:31.723Z,23.43
2018-04-18T10:54:31.840Z,23.4
2018-04-18T10:55:31.746Z,23.41
2018-04-18T10:56:31.749Z,23.41
2018-04-18T10:57:31.784Z,23.61
2018-04-18T10:58:31.920Z,23.62
2018-04-18T10:59:31.760Z,23.62
2018-04-18T11:00:31.718Z,23.65
2018-04-18T11:01:31.735Z,23.65
2018-04-18T11:02:31.771Z,23.81
2018-04-18T11:03:31.787Z,23.78
2018-04-18T11:04:31.701Z,23.77
2018-04-18T11:05:31.759Z,23.77
2018-04-18T11:06:31.714Z,23.81
2018-04-18T11:07:31.735Z,23.84
2018-04-18T11:08:31.732Z,23.82
2018-04-18T11:09:31.738Z,23.81
2018-04-18T11:10:31.726Z,23.88
2018-04-18T11:11:31.723Z,23.92
2018-04-18T11:12:31.711Z,23.91
2018-04-18T11:13:31.726Z,23.93
2018-04-18T11:14:31.721Z,23.98
2018-04-18T11:15:31.722Z,23.98
2018-04-18T11:16:31.733Z,24.03
2018-04-18T11:17:31.736Z,24.02
2018-04-18T11:18:31.705Z,24.05
2018-04-18T11:19:31.702Z,24.03
2018-04-18T11:20:31.885Z,24.05
2018-04-18T11:21:31.717Z,24.03
2018-04-18T11:22:31.743Z,24.06
2018-04-18T11:23:31.741Z,24.05
2018-04-18T11:24:31.709Z,24.02
2018-04-18T11:25:31.726Z,24.05
2018-04-18T11:26:31.822Z,24.12
2018-04-18T11:27:31.741Z,24.15
2018-04-18T11:28:31.982Z,24.17
2018-04-18T11:29:31.750Z,24.17
2018-04-18T11:30:31.700Z,24.16
2018-04-18T11:31:31.896Z,24.19
2018-04-18T11:32:31.792Z,24.19
2018-04-18T11:33:31.866Z,24.21
2018-04-18T11:34:31.724Z,24.29
2018-04-18T11:35:31.741Z,24.29
2018-04-18T11:36:31.699Z,24.32
2018-04-18T11:37:31.728Z,24.33
2018-04-18T11:38:31.732Z,24.33
2018-04-18T11:39:31.770Z,24.35
2018-04-18T11:40:31.738Z,24.35
2018-04-18T11:41:31.719Z,24.37
2018-04-18T11:42:31.766Z,24.4
2018-04-18T11:43:31.713Z,24.42
2018-04-18T11:44:31.700Z,24.37
2018-04-18T11:45:31.800Z,24.43
2018-04-18T11:46:31.700Z,24.44
2018-04-18T11:47:31.798Z,24.46
2018-04-18T11:48:31.706Z,24.43
2018-04-18T11:49:31.921Z,24.5
2018-04-18T11:50:31.765Z,24.48
2018-04-18T11:51:31.799Z,24.55
2018-04-18T11:52:31.743Z,24.58
2018-04-18T11:53:31.723Z,24.63
2018-04-18T11:54:31.736Z,24.67
2018-04-18T11:55:31.699Z,24.71
2018-04-18T11:56:31.707Z,24.77
2018-04-18T11:57:31.875Z,24.78
2018-04-18T11:58:31.722Z,24.82
2018-04-18T11:59:31.722Z,24.85
2018-04-18T12:00:31.744Z,24.83
2018-04-18T12:01:31.699Z,24.88
2018-04-18T12:02:31.772Z,24.88
2018-04-18T12:03:32.455Z,24.89
2018-04-18T12:04:31.751Z,24.85
2018-04-18T12:05:31.723Z,24.91
2018-04-18T12:06:31.722Z,24.97
2018-04-18T12:07:31.735Z,24.99
2018-04-18T12:08:31.736Z,25.01
2018-04-18T12:09:31.704Z,25.03
2018-04-18T12:10:31.757Z,25.02
2018-04-18T12:11:31.869Z,25.08
2018-04-18T12:12:31.746Z,25.06
2018-04-18T12:13:31.710Z,25.1
2018-04-18T12:14:31.689Z,25.15
2018-04-18T12:15:31.726Z,25.17
2018-04-18T12:16:31.742Z,25.19
2018-04-18T12:17:31.728Z,25.23
2018-04-18T12:18:31.835Z,25.25
2018-04-18T12:19:31.736Z,25.23
2018-04-18T12:20:31.699Z,25.26
2018-04-18T12:21:31.762Z,25.26
2018-04-18T12:22:31.810Z,25.26
2018-04-18T12:23:31.783Z,25.29
2018-04-18T12:24:31.786Z,25.3
2018-04-18T12:25:31.768Z,25.34
2018-04-18T12:26:31.788Z,25.36
2018-04-18T12:27:31.760Z,25.36
2018-04-18T12:28:31.814Z,25.41
2018-04-18T12:29:31.689Z,25.38
2018-04-18T12:30:31.829Z,25.43
2018-04-18T12:31:31.715Z,25.53
2018-04-18T12:32:31.703Z,25.5
2018-04-18T12:33:31.857Z,25.6
2018-04-18T12:34:31.900Z,25.63
2018-04-18T12:35:31.800Z,25.63
2018-04-18T12:36:31.758Z,25.68
2018-04-18T12:37:31.766Z,25.71
2018-04-18T12:38:31.762Z,25.71
2018-04-18T12:39:31.775Z,25.82
2018-04-18T12:40:31.781Z,25.8
2018-04-18T12:41:31.856Z,25.77
2018-04-18T12:42:31.712Z,25.74
2018-04-18T12:43:31.712Z,25.81
2018-04-18T12:44:31.678Z,26.03
2018-04-18T12:45:31.681Z,25.95
2018-04-18T12:46:31.733Z,25.96
2018-04-18T12:47:31.730Z,26.02
2018-04-18T12:48:31.741Z,26
2018-04-18T12:49:31.685Z,26.06
2018-04-18T12:50:31.757Z,26.03
2018-04-18T12:51:31.759Z,26.09
2018-04-18T12:52:31.710Z,26.09
2018-04-18T12:53:31.708Z,26.08
2018-04-18T12:54:31.816Z,26.15